Terminal Aerodrome Forecast
Issued by NWS

Home | Current Version | Previous Version | Text Only | Print | Product List | Glossary On
Versions: 1 2 3 4 5 6 7 8 9 10 11 12
570
FTPA31 PHFO 292320
TAFHJH
TAF
PHJH 292320Z 3000/3024 05018G26KT P6SM FEW030 SCT050
     FM300500 05014G20KT P6SM FEW030 SCT050
     FM302000 05015G22KT P6SM FEW030 SCT050
      AMD NOT SKED 3004/3018=

USA.gov is the U.S. government's official web portal to all federal, state and local government web resources and services.